KLM880 EHAM-EBBR
Flight info
| Callsign | KLM880 |
|---|---|
| Flight time | 0h 34m |
| Altitude | 12000 |
| Route | WOODY |
| Aircraft | A321/M-SDE3FGHIRWY/LB1 |
Departure
| Time | 2026-05-05 19:46 |
|---|---|
| Airport | Amsterdam Airport Schiphol (EHAM) |
Arrival
| Time | 2026-05-05 20:20 |
|---|---|
| Airport | Brussels Airport (EBBR) |
| Time | Latitude | Longitude | Altitude | Speed | Heading |
|---|---|---|---|---|---|
| 2026-05-05 19:10 | 52.30896 | 4.77175 | -1 ft | 0 kts | 3° |
| 2026-05-05 19:29 | 52.30893 | 4.77175 | -1 ft | 3 kts | 2° |
| 2026-05-05 19:29 | 52.30867 | 4.77177 | -1 ft | 4 kts | 3° |
| 2026-05-05 19:30 | 52.30853 | 4.77167 | -1 ft | 3 kts | 70° |
| 2026-05-05 19:30 | 52.30848 | 4.77140 | -1 ft | 0 kts | 77° |
| 2026-05-05 19:34 | 52.30849 | 4.77145 | -1 ft | 2 kts | 79° |
| 2026-05-05 19:35 | 52.30841 | 4.77328 | -1 ft | 8 kts | 93° |
| 2026-05-05 19:35 | 52.30836 | 4.77424 | -1 ft | 10 kts | 105° |
| 2026-05-05 19:35 | 52.30752 | 4.77465 | -1 ft | 17 kts | 180° |
| 2026-05-05 19:35 | 52.30643 | 4.77420 | -1 ft | 16 kts | 223° |
| 2026-05-05 19:36 | 52.30579 | 4.77269 | -1 ft | 17 kts | 236° |
| 2026-05-05 19:36 | 52.30508 | 4.77083 | -1 ft | 23 kts | 238° |
| 2026-05-05 19:36 | 52.30407 | 4.76823 | -1 ft | 29 kts | 238° |
| 2026-05-05 19:36 | 52.30305 | 4.76546 | -1 ft | 28 kts | 238° |
| 2026-05-05 19:37 | 52.30202 | 4.76289 | -1 ft | 26 kts | 235° |
| 2026-05-05 19:37 | 52.30106 | 4.76043 | -1 ft | 25 kts | 239° |
| 2026-05-05 19:37 | 52.30017 | 4.75807 | -1 ft | 24 kts | 240° |
| 2026-05-05 19:37 | 52.29935 | 4.75584 | -1 ft | 22 kts | 237° |
| 2026-05-05 19:38 | 52.29856 | 4.75379 | -1 ft | 21 kts | 237° |
| 2026-05-05 19:38 | 52.29853 | 4.75179 | -1 ft | 19 kts | 304° |
| 2026-05-05 19:38 | 52.29954 | 4.74985 | -1 ft | 26 kts | 311° |
| 2026-05-05 19:38 | 52.30088 | 4.74740 | 2 ft | 29 kts | 312° |
| 2026-05-05 19:39 | 52.30208 | 4.74518 | 10 ft | 25 kts | 311° |
| 2026-05-05 19:39 | 52.30312 | 4.74322 | 3 ft | 24 kts | 311° |
| 2026-05-05 19:39 | 52.30364 | 4.74118 | -1 ft | 18 kts | 250° |
| 2026-05-05 19:39 | 52.30302 | 4.74011 | -1 ft | 0 kts | 216° |
| 2026-05-05 19:42 | 52.30296 | 4.74004 | -1 ft | 6 kts | 216° |
| 2026-05-05 19:42 | 52.30234 | 4.73932 | -1 ft | 12 kts | 216° |
| 2026-05-05 19:42 | 52.30223 | 4.73918 | -1 ft | 0 kts | 217° |
| 2026-05-05 19:43 | 52.30213 | 4.73905 | -1 ft | 7 kts | 220° |
| 2026-05-05 19:43 | 52.30192 | 4.73792 | -2 ft | 12 kts | 287° |
| 2026-05-05 19:43 | 52.30259 | 4.73743 | -4 ft | 12 kts | 1° |
| 2026-05-05 19:44 | 52.30282 | 4.73744 | -4 ft | 0 kts | 2° |
| 2026-05-05 19:45 | 52.30428 | 4.73755 | -3 ft | 55 kts | 3° |
| 2026-05-05 19:45 | 52.31025 | 4.73812 | 0 ft | 114 kts | 3° |
| 2026-05-05 19:46 | 52.31976 | 4.73912 | 5 ft | 157 kts | 4° |
| 2026-05-05 19:46 | 52.33063 | 4.74018 | 593 ft | 153 kts | 6° |
| 2026-05-05 19:46 | 52.34054 | 4.74565 | 1251 ft | 150 kts | 27° |
| 2026-05-05 19:46 | 52.35023 | 4.75313 | 1691 ft | 161 kts | 23° |
| 2026-05-05 19:47 | 52.36132 | 4.75994 | 1913 ft | 180 kts | 21° |
| 2026-05-05 19:47 | 52.37237 | 4.77158 | 1879 ft | 210 kts | 53° |
| 2026-05-05 19:47 | 52.37537 | 4.79481 | 2578 ft | 217 kts | 97° |
| 2026-05-05 19:47 | 52.37160 | 4.81887 | 3294 ft | 225 kts | 102° |
| 2026-05-05 19:48 | 52.36293 | 4.84078 | 3928 ft | 241 kts | 137° |
| 2026-05-05 19:48 | 52.34704 | 4.85139 | 4433 ft | 263 kts | 172° |
| 2026-05-05 19:48 | 52.32809 | 4.85043 | 4886 ft | 279 kts | 182° |
| 2026-05-05 19:48 | 52.30849 | 4.84893 | 5600 ft | 284 kts | 180° |
| 2026-05-05 19:49 | 52.28850 | 4.84810 | 6347 ft | 287 kts | 180° |
| 2026-05-05 19:49 | 52.27528 | 4.84778 | 6910 ft | 287 kts | 180° |
| 2026-05-05 19:49 | 52.24831 | 4.84741 | 7878 ft | 292 kts | 180° |
| 2026-05-05 19:49 | 52.22822 | 4.84717 | 8604 ft | 294 kts | 180° |
| 2026-05-05 19:50 | 52.20776 | 4.84687 | 9399 ft | 295 kts | 180° |
| 2026-05-05 19:50 | 52.18714 | 4.84651 | 10073 ft | 299 kts | 181° |
| 2026-05-05 19:50 | 52.16568 | 4.84610 | 10291 ft | 320 kts | 181° |
| 2026-05-05 19:50 | 52.14271 | 4.84559 | 10415 ft | 341 kts | 181° |
| 2026-05-05 19:51 | 52.11835 | 4.84504 | 10740 ft | 355 kts | 181° |
| 2026-05-05 19:51 | 52.09355 | 4.84451 | 11357 ft | 358 kts | 180° |
| 2026-05-05 19:51 | 52.06845 | 4.84400 | 11983 ft | 363 kts | 180° |
| 2026-05-05 19:51 | 52.04319 | 4.84305 | 12622 ft | 365 kts | 184° |
| 2026-05-05 19:52 | 52.02159 | 4.83785 | 12828 ft | 366 kts | 193° |
| 2026-05-05 19:58 | 52.00210 | 4.82830 | 12882 ft | 368 kts | 202° |
| 2026-05-05 19:58 | 51.97900 | 4.81067 | 12905 ft | 374 kts | 207° |
| 2026-05-05 19:58 | 51.95566 | 4.79193 | 12895 ft | 375 kts | 206° |
| 2026-05-05 19:59 | 51.93218 | 4.77332 | 12896 ft | 377 kts | 205° |
| 2026-05-05 19:59 | 51.90854 | 4.75479 | 12894 ft | 377 kts | 205° |
| 2026-05-05 19:59 | 51.88491 | 4.73637 | 12896 ft | 378 kts | 205° |
| 2026-05-05 19:59 | 51.86122 | 4.71796 | 12894 ft | 379 kts | 205° |
| 2026-05-05 20:00 | 51.83744 | 4.69955 | 12889 ft | 378 kts | 205° |
| 2026-05-05 20:00 | 51.81371 | 4.68116 | 12906 ft | 378 kts | 205° |
| 2026-05-05 20:00 | 51.79005 | 4.66279 | 12899 ft | 377 kts | 205° |
| 2026-05-05 20:00 | 51.76639 | 4.64436 | 12894 ft | 378 kts | 205° |
| 2026-05-05 20:01 | 51.74303 | 4.62615 | 12896 ft | 378 kts | 205° |
| 2026-05-05 20:01 | 51.71937 | 4.60776 | 12909 ft | 378 kts | 205° |
| 2026-05-05 20:01 | 51.69567 | 4.58938 | 12895 ft | 378 kts | 204° |
| 2026-05-05 20:01 | 51.67197 | 4.57102 | 12882 ft | 378 kts | 205° |
| 2026-05-05 20:02 | 51.64821 | 4.55265 | 12886 ft | 379 kts | 205° |
| 2026-05-05 20:02 | 51.62447 | 4.53434 | 12893 ft | 378 kts | 204° |
| 2026-05-05 20:02 | 51.60074 | 4.51608 | 12887 ft | 378 kts | 204° |
| 2026-05-05 20:02 | 51.57698 | 4.49776 | 12883 ft | 379 kts | 205° |
| 2026-05-05 20:03 | 51.55320 | 4.47943 | 12890 ft | 379 kts | 205° |
| 2026-05-05 20:03 | 51.52979 | 4.46141 | 12893 ft | 379 kts | 204° |
| 2026-05-05 20:03 | 51.50602 | 4.44319 | 12894 ft | 379 kts | 204° |
| 2026-05-05 20:03 | 51.48222 | 4.42497 | 12895 ft | 379 kts | 204° |
| 2026-05-05 20:04 | 51.45838 | 4.40678 | 12886 ft | 380 kts | 204° |
| 2026-05-05 20:04 | 51.43453 | 4.38858 | 12887 ft | 380 kts | 204° |
| 2026-05-05 20:04 | 51.41064 | 4.37036 | 12883 ft | 380 kts | 204° |
| 2026-05-05 20:04 | 51.38676 | 4.35213 | 12884 ft | 381 kts | 205° |
| 2026-05-05 20:05 | 51.36281 | 4.33389 | 12890 ft | 381 kts | 205° |
| 2026-05-05 20:05 | 51.33921 | 4.31597 | 12889 ft | 381 kts | 204° |
| 2026-05-05 20:05 | 51.31425 | 4.30252 | 12886 ft | 378 kts | 187° |
| 2026-05-05 20:05 | 51.28818 | 4.30184 | 12885 ft | 374 kts | 169° |
| 2026-05-05 20:06 | 51.26332 | 4.31329 | 12886 ft | 371 kts | 153° |
| 2026-05-05 20:06 | 51.24185 | 4.33550 | 12887 ft | 367 kts | 136° |
| 2026-05-05 20:06 | 51.22559 | 4.36652 | 12887 ft | 364 kts | 122° |
| 2026-05-05 20:06 | 51.20965 | 4.39785 | 12884 ft | 367 kts | 138° |
| 2026-05-05 20:07 | 51.18704 | 4.41688 | 12883 ft | 373 kts | 163° |
| 2026-05-05 20:07 | 51.16116 | 4.41884 | 12883 ft | 377 kts | 188° |
| 2026-05-05 20:07 | 51.13667 | 4.40569 | 12881 ft | 379 kts | 207° |
| 2026-05-05 20:07 | 51.11487 | 4.38204 | 12882 ft | 380 kts | 216° |
| 2026-05-05 20:08 | 51.09357 | 4.35703 | 12883 ft | 380 kts | 216° |
| 2026-05-05 20:08 | 51.07251 | 4.33242 | 12652 ft | 371 kts | 216° |
| 2026-05-05 20:08 | 51.05198 | 4.30840 | 12391 ft | 361 kts | 216° |
| 2026-05-05 20:08 | 51.03202 | 4.28500 | 12119 ft | 353 kts | 216° |
| 2026-05-05 20:09 | 51.01239 | 4.26195 | 11684 ft | 350 kts | 216° |
| 2026-05-05 20:09 | 50.99288 | 4.23903 | 11210 ft | 348 kts | 216° |
| 2026-05-05 20:09 | 50.97341 | 4.21617 | 10721 ft | 347 kts | 216° |
| 2026-05-05 20:09 | 50.95427 | 4.19371 | 10272 ft | 346 kts | 216° |
| 2026-05-05 20:10 | 50.93526 | 4.17152 | 10131 ft | 333 kts | 214° |
| 2026-05-05 20:10 | 50.91504 | 4.15531 | 9975 ft | 321 kts | 197° |
| 2026-05-05 20:10 | 50.89360 | 4.14927 | 9870 ft | 307 kts | 181° |
| 2026-05-05 20:10 | 50.87240 | 4.15243 | 9325 ft | 308 kts | 166° |
| 2026-05-05 20:11 | 50.85197 | 4.16056 | 8792 ft | 296 kts | 165° |
| 2026-05-05 20:11 | 50.83247 | 4.16833 | 8319 ft | 283 kts | 165° |
| 2026-05-05 20:11 | 50.81992 | 4.17332 | 8008 ft | 277 kts | 165° |
| 2026-05-05 20:11 | 50.79580 | 4.18285 | 7417 ft | 263 kts | 164° |
| 2026-05-05 20:12 | 50.77840 | 4.18969 | 6991 ft | 253 kts | 163° |
| 2026-05-05 20:12 | 50.76147 | 4.19634 | 6573 ft | 249 kts | 163° |
| 2026-05-05 20:12 | 50.74457 | 4.20298 | 6149 ft | 251 kts | 163° |
| 2026-05-05 20:12 | 50.72794 | 4.20949 | 5995 ft | 244 kts | 163° |
| 2026-05-05 20:13 | 50.71149 | 4.21623 | 5919 ft | 240 kts | 157° |
| 2026-05-05 20:13 | 50.70201 | 4.22415 | 5850 ft | 227 kts | 136° |
| 2026-05-05 20:13 | 50.69278 | 4.24277 | 5747 ft | 210 kts | 109° |
| 2026-05-05 20:13 | 50.69075 | 4.27196 | 5338 ft | 201 kts | 75° |
| 2026-05-05 20:14 | 50.69420 | 4.29313 | 5061 ft | 198 kts | 73° |
| 2026-05-05 20:14 | 50.69755 | 4.31410 | 4782 ft | 196 kts | 74° |
| 2026-05-05 20:14 | 50.69972 | 4.32788 | 4643 ft | 194 kts | 74° |
| 2026-05-05 20:14 | 50.70293 | 4.34843 | 4423 ft | 192 kts | 73° |
| 2026-05-05 20:15 | 50.70614 | 4.36882 | 4182 ft | 191 kts | 74° |
| 2026-05-05 20:15 | 50.70932 | 4.38901 | 3926 ft | 189 kts | 73° |
| 2026-05-05 20:15 | 50.71457 | 4.40757 | 3728 ft | 184 kts | 54° |
| 2026-05-05 20:15 | 50.72356 | 4.42174 | 3551 ft | 183 kts | 35° |
| 2026-05-05 20:16 | 50.73927 | 4.43147 | 3257 ft | 184 kts | 18° |
| 2026-05-05 20:16 | 50.75177 | 4.43650 | 3024 ft | 183 kts | 18° |
| 2026-05-05 20:16 | 50.75977 | 4.43972 | 2860 ft | 175 kts | 17° |
| 2026-05-05 20:16 | 50.77103 | 4.44427 | 2614 ft | 159 kts | 18° |
| 2026-05-05 20:17 | 50.78131 | 4.44843 | 2420 ft | 148 kts | 18° |
| 2026-05-05 20:17 | 50.79102 | 4.45238 | 2224 ft | 142 kts | 18° |
| 2026-05-05 20:17 | 50.80063 | 4.45630 | 2015 ft | 142 kts | 17° |
| 2026-05-05 20:17 | 50.81008 | 4.46014 | 1810 ft | 140 kts | 15° |
| 2026-05-05 20:18 | 50.81948 | 4.46396 | 1631 ft | 139 kts | 16° |
| 2026-05-05 20:18 | 50.82888 | 4.46778 | 1434 ft | 139 kts | 14° |
| 2026-05-05 20:18 | 50.83823 | 4.47160 | 1248 ft | 138 kts | 16° |
| 2026-05-05 20:18 | 50.84756 | 4.47545 | 1049 ft | 139 kts | 15° |
| 2026-05-05 20:19 | 50.85679 | 4.47916 | 817 ft | 140 kts | 14° |
| 2026-05-05 20:19 | 50.86624 | 4.48314 | 639 ft | 142 kts | 15° |
| 2026-05-05 20:19 | 50.87582 | 4.48697 | 392 ft | 142 kts | 13° |
| 2026-05-05 20:19 | 50.88536 | 4.49080 | 250 ft | 142 kts | 13° |
| 2026-05-05 20:20 | 50.89434 | 4.49440 | 167 ft | 104 kts | 14° |
| 2026-05-05 20:20 | 50.89880 | 4.49626 | 139 ft | 50 kts | 14° |
| 2026-05-05 20:20 | 50.90165 | 4.49713 | 126 ft | 31 kts | 352° |
| 2026-05-05 20:20 | 50.90352 | 4.49649 | 126 ft | 3 kts | 343° |
| 2026-05-05 20:21 | 50.90353 | 4.49649 | 126 ft | 0 kts | 343° |
| 2026-05-05 20:22 | 50.90368 | 4.49641 | 122 ft | 9 kts | 343° |
| 2026-05-05 20:22 | 50.90474 | 4.49608 | 122 ft | 17 kts | 0° |
| 2026-05-05 20:22 | 50.90588 | 4.49645 | 121 ft | 16 kts | 13° |
| 2026-05-05 20:22 | 50.90692 | 4.49687 | 123 ft | 15 kts | 14° |
| 2026-05-05 20:23 | 50.90788 | 4.49727 | 124 ft | 14 kts | 15° |
| 2026-05-05 20:23 | 50.90875 | 4.49743 | 123 ft | 12 kts | 334° |
| 2026-05-05 20:23 | 50.90885 | 4.49635 | 123 ft | 11 kts | 250° |
| 2026-05-05 20:23 | 50.90842 | 4.49481 | 122 ft | 20 kts | 246° |
| 2026-05-05 20:24 | 50.90772 | 4.49239 | 120 ft | 25 kts | 245° |
| 2026-05-05 20:24 | 50.90700 | 4.48987 | 120 ft | 25 kts | 245° |
| 2026-05-05 20:24 | 50.90640 | 4.48783 | 119 ft | 17 kts | 245° |
| 2026-05-05 20:24 | 50.90594 | 4.48639 | 121 ft | 11 kts | 229° |
| 2026-05-05 20:25 | 50.90534 | 4.48594 | 121 ft | 9 kts | 197° |
| 2026-05-05 20:25 | 50.90491 | 4.48552 | 118 ft | 6 kts | 226° |
| 2026-05-05 20:25 | 50.90472 | 4.48501 | 120 ft | 5 kts | 245° |
| 2026-05-05 20:25 | 50.90455 | 4.48427 | 120 ft | 10 kts | 250° |
| 2026-05-05 20:26 | 50.90422 | 4.48389 | 119 ft | 5 kts | 181° |
| 2026-05-05 20:26 | 50.90398 | 4.48400 | 117 ft | 3 kts | 161° |
| 2026-05-05 20:26 | 50.90383 | 4.48410 | 119 ft | 4 kts | 157° |
| 2026-05-05 20:26 | 50.90368 | 4.48421 | 118 ft | 1 kts | 155° |
| 2026-05-05 20:27 | 50.90363 | 4.48424 | 118 ft | 1 kts | 155° |
| 2026-05-05 20:27 | 50.90360 | 4.48426 | 118 ft | 0 kts | 155° |
| 2026-05-05 20:27 | 50.90358 | 4.48428 | 118 ft | 0 kts | 155° |